createdAt,value
2018-01-16T00:05:32.326Z,0
2018-01-16T00:15:32.427Z,0
2018-01-16T00:25:32.341Z,0
2018-01-16T00:35:32.489Z,0
2018-01-16T00:45:32.345Z,0
2018-01-16T00:55:32.453Z,0
2018-01-16T01:05:32.396Z,0
2018-01-16T01:15:32.475Z,0
2018-01-16T01:25:32.440Z,0
2018-01-16T01:35:32.353Z,0
2018-01-16T01:45:32.459Z,0
2018-01-16T01:55:32.401Z,0
2018-01-16T02:05:32.468Z,0
2018-01-16T02:15:32.408Z,0
2018-01-16T02:25:32.504Z,0
2018-01-16T02:35:32.573Z,0
2018-01-16T02:45:32.500Z,0
2018-01-16T02:55:32.567Z,0
2018-01-16T03:05:32.548Z,0
2018-01-16T03:15:32.453Z,0
2018-01-16T03:25:32.555Z,0
2018-01-16T03:35:32.471Z,0
2018-01-16T03:45:32.499Z,0
2018-01-16T03:55:32.507Z,0
2018-01-16T04:05:32.545Z,0
2018-01-16T04:15:32.558Z,0
2018-01-16T04:25:32.539Z,0
2018-01-16T04:35:32.602Z,0
2018-01-16T04:45:32.559Z,0
2018-01-16T04:55:32.610Z,0
2018-01-16T05:05:32.593Z,0
2018-01-16T05:15:32.618Z,0
2018-01-16T05:25:32.570Z,0
2018-01-16T05:35:32.681Z,0
2018-01-16T05:45:32.616Z,0
2018-01-16T05:55:32.551Z,0
2018-01-16T06:05:32.688Z,0
2018-01-16T06:15:32.617Z,0
2018-01-16T06:25:32.629Z,0
2018-01-16T06:35:32.618Z,0
2018-01-16T06:45:32.694Z,0
2018-01-16T06:55:32.630Z,0
2018-01-16T07:05:32.717Z,0
2018-01-16T07:15:32.653Z,0
2018-01-16T07:25:32.751Z,0
2018-01-16T07:35:32.707Z,5
2018-01-16T07:45:32.740Z,10
2018-01-16T07:55:32.696Z,15
2018-01-16T08:05:32.678Z,35
2018-01-16T08:15:32.739Z,10
2018-01-16T08:25:32.672Z,0
2018-01-16T08:35:32.842Z,0
2018-01-16T08:45:32.771Z,0
2018-01-16T08:55:32.963Z,25
2018-01-16T09:05:33.409Z,30
2018-01-16T09:15:33.673Z,10
2018-01-16T09:25:32.982Z,0
2018-01-16T09:35:32.812Z,0
2018-01-16T09:45:32.775Z,20
2018-01-16T09:55:32.881Z,15
2018-01-16T10:05:32.832Z,25
2018-01-16T10:15:32.744Z,80
2018-01-16T10:25:32.854Z,85
2018-01-16T10:35:32.815Z,100
2018-01-16T10:45:32.851Z,40
2018-01-16T10:55:32.806Z,85
2018-01-16T11:05:32.802Z,95
2018-01-16T11:15:32.828Z,60
2018-01-16T11:25:32.883Z,65
2018-01-16T11:35:32.933Z,85
2018-01-16T11:45:33.046Z,110
2018-01-16T11:55:32.967Z,85
2018-01-16T12:05:32.995Z,75
2018-01-16T12:15:32.949Z,50
2018-01-16T12:25:33.103Z,60
2018-01-16T12:35:33.121Z,65
2018-01-16T12:45:33.022Z,80
2018-01-16T12:55:35.368Z,110
2018-01-16T13:05:32.962Z,110
2018-01-16T13:15:32.898Z,70
2018-01-16T13:25:32.978Z,75
2018-01-16T13:35:32.956Z,100
2018-01-16T13:45:33.022Z,15
2018-01-16T13:55:32.964Z,35
2018-01-16T14:05:33.071Z,40
2018-01-16T14:15:33.055Z,55
2018-01-16T14:25:33.020Z,55
2018-01-16T14:35:32.986Z,55
2018-01-16T14:45:33.081Z,45
2018-01-16T14:55:32.995Z,40
2018-01-16T15:05:33.546Z,30
2018-01-16T15:15:33.086Z,30
2018-01-16T15:25:33.062Z,15
2018-01-16T15:35:33.148Z,10
2018-01-16T15:45:33.104Z,0
2018-01-16T15:55:33.030Z,0
2018-01-16T16:05:33.126Z,0
2018-01-16T16:15:33.102Z,0
2018-01-16T16:25:35.385Z,0
2018-01-16T16:35:33.215Z,0
2018-01-16T16:45:33.216Z,0
2018-01-16T16:55:33.112Z,0
2018-01-16T17:05:33.164Z,0
2018-01-16T17:15:33.131Z,0
2018-01-16T17:25:33.196Z,0
2018-01-16T17:35:33.171Z,0
2018-01-16T17:45:33.289Z,0
2018-01-16T17:55:33.183Z,0
2018-01-16T18:05:33.248Z,0
2018-01-16T18:15:33.257Z,0
2018-01-16T18:25:33.381Z,0
2018-01-16T18:35:33.189Z,0
2018-01-16T18:45:48.067Z,0
2018-01-16T18:55:33.231Z,0
2018-01-16T19:05:33.231Z,0
2018-01-16T19:15:33.359Z,0
2018-01-16T19:25:33.319Z,0
2018-01-16T19:35:33.531Z,0
2018-01-16T19:46:31.953Z,0
2018-01-16T19:56:37.060Z,0
2018-01-16T20:06:33.739Z,0
2018-01-16T20:16:34.285Z,0
2018-01-16T20:26:29.140Z,0
2018-01-16T20:35:33.389Z,0
2018-01-16T20:45:33.302Z,0
2018-01-16T20:55:33.347Z,0
2018-01-16T21:05:33.751Z,0
2018-01-16T21:15:33.344Z,0
2018-01-16T21:25:33.345Z,0
2018-01-16T21:35:33.441Z,0
2018-01-16T21:45:33.384Z,0
2018-01-16T21:55:33.392Z,0
2018-01-16T22:05:33.472Z,0
2018-01-16T22:15:33.747Z,0
2018-01-16T22:25:33.456Z,0
2018-01-16T22:35:33.423Z,0
2018-01-16T22:45:33.488Z,0
2018-01-16T22:55:33.470Z,0
2018-01-16T23:05:33.540Z,0
2018-01-16T23:15:33.439Z,0
2018-01-16T23:25:33.574Z,0
2018-01-16T23:35:33.514Z,0
2018-01-16T23:45:33.423Z,0
2018-01-16T23:55:33.523Z,0
